sensor_id;sensor_type;location;lat;lon;timestamp;temperature;humidity
57709;SHT35;42558;52.388;13.390;2023-02-23T00:01:27;4.64;82.02
57709;SHT35;42558;52.388;13.390;2023-02-23T00:03:59;4.61;82.21
57709;SHT35;42558;52.388;13.390;2023-02-23T00:06:29;4.60;82.30
57709;SHT35;42558;52.388;13.390;2023-02-23T00:09:02;4.57;82.34
57709;SHT35;42558;52.388;13.390;2023-02-23T00:11:37;4.57;82.50
57709;SHT35;42558;52.388;13.390;2023-02-23T00:14:07;4.55;82.50
57709;SHT35;42558;52.388;13.390;2023-02-23T00:16:36;4.55;82.55
57709;SHT35;42558;52.388;13.390;2023-02-23T00:19:06;4.53;82.64
57709;SHT35;42558;52.388;13.390;2023-02-23T00:21:36;4.52;82.68
57709;SHT35;42558;52.388;13.390;2023-02-23T00:24:08;4.52;82.70
57709;SHT35;42558;52.388;13.390;2023-02-23T00:26:42;4.50;82.77
57709;SHT35;42558;52.388;13.390;2023-02-23T00:29:15;4.48;82.84
57709;SHT35;42558;52.388;13.390;2023-02-23T00:31:49;4.49;82.82
57709;SHT35;42558;52.388;13.390;2023-02-23T00:34:20;4.49;82.84
57709;SHT35;42558;52.388;13.390;2023-02-23T00:36:52;4.47;82.93
57709;SHT35;42558;52.388;13.390;2023-02-23T00:39:23;4.47;82.92
57709;SHT35;42558;52.388;13.390;2023-02-23T00:41:57;4.45;83.01
57709;SHT35;42558;52.388;13.390;2023-02-23T00:44:31;4.44;83.06
57709;SHT35;42558;52.388;13.390;2023-02-23T00:47:02;4.43;83.12
57709;SHT35;42558;52.388;13.390;2023-02-23T00:49:32;4.44;83.17
57709;SHT35;42558;52.388;13.390;2023-02-23T00:52:03;4.43;83.17
57709;SHT35;42558;52.388;13.390;2023-02-23T00:54:33;4.41;83.24
57709;SHT35;42558;52.388;13.390;2023-02-23T00:57:03;4.41;83.29
57709;SHT35;42558;52.388;13.390;2023-02-23T00:59:33;4.41;83.27
57709;SHT35;42558;52.388;13.390;2023-02-23T01:02:03;4.40;83.32
57709;SHT35;42558;52.388;13.390;2023-02-23T01:04:33;4.39;83.33
57709;SHT35;42558;52.388;13.390;2023-02-23T01:07:02;4.40;83.30
57709;SHT35;42558;52.388;13.390;2023-02-23T01:09:34;4.40;83.37
57709;SHT35;42558;52.388;13.390;2023-02-23T01:12:04;4.41;83.33
57709;SHT35;42558;52.388;13.390;2023-02-23T01:14:38;4.39;83.37
57709;SHT35;42558;52.388;13.390;2023-02-23T01:17:08;4.39;83.41
57709;SHT35;42558;52.388;13.390;2023-02-23T01:19:38;4.39;83.39
57709;SHT35;42558;52.388;13.390;2023-02-23T01:22:07;4.37;83.40
57709;SHT35;42558;52.388;13.390;2023-02-23T01:24:34;4.35;83.50
57709;SHT35;42558;52.388;13.390;2023-02-23T01:27:07;4.34;83.57
57709;SHT35;42558;52.388;13.390;2023-02-23T01:29:37;4.32;83.69
57709;SHT35;42558;52.388;13.390;2023-02-23T01:32:06;4.31;83.70
57709;SHT35;42558;52.388;13.390;2023-02-23T01:34:36;4.30;83.75
57709;SHT35;42558;52.388;13.390;2023-02-23T01:37:06;4.27;83.82
57709;SHT35;42558;52.388;13.390;2023-02-23T01:39:37;4.25;83.96
57709;SHT35;42558;52.388;13.390;2023-02-23T01:42:13;4.25;83.90
57709;SHT35;42558;52.388;13.390;2023-02-23T01:47:14;4.21;84.05
57709;SHT35;42558;52.388;13.390;2023-02-23T01:49:45;4.21;84.05
57709;SHT35;42558;52.388;13.390;2023-02-23T01:52:16;4.21;84.05
57709;SHT35;42558;52.388;13.390;2023-02-23T01:54:49;4.19;84.12
57709;SHT35;42558;52.388;13.390;2023-02-23T01:57:23;4.18;84.17
57709;SHT35;42558;52.388;13.390;2023-02-23T01:59:55;4.16;84.18
57709;SHT35;42558;52.388;13.390;2023-02-23T02:02:25;4.15;84.26
57709;SHT35;42558;52.388;13.390;2023-02-23T02:05:02;4.13;84.30
57709;SHT35;42558;52.388;13.390;2023-02-23T02:07:36;4.13;84.31
57709;SHT35;42558;52.388;13.390;2023-02-23T02:10:08;4.10;84.42
57709;SHT35;42558;52.388;13.390;2023-02-23T02:12:47;4.09;84.50
57709;SHT35;42558;52.388;13.390;2023-02-23T02:15:22;4.09;84.49
57709;SHT35;42558;52.388;13.390;2023-02-23T02:36:40;4.04;84.60
57709;SHT35;42558;52.388;13.390;2023-02-23T02:50:48;3.96;84.79
57709;SHT35;42558;52.388;13.390;2023-02-23T02:53:35;3.95;84.86
57709;SHT35;42558;52.388;13.390;2023-02-23T02:56:14;3.94;84.90
57709;SHT35;42558;52.388;13.390;2023-02-23T02:58:48;3.92;84.99
57709;SHT35;42558;52.388;13.390;2023-02-23T03:01:22;3.91;85.01
57709;SHT35;42558;52.388;13.390;2023-02-23T03:04:21;3.91;85.00
57709;SHT35;42558;52.388;13.390;2023-02-23T03:07:15;3.89;85.03
57709;SHT35;42558;52.388;13.390;2023-02-23T03:10:17;3.88;85.05
57709;SHT35;42558;52.388;13.390;2023-02-23T03:13:51;3.86;85.19
57709;SHT35;42558;52.388;13.390;2023-02-23T03:23:37;3.80;85.32
57709;SHT35;42558;52.388;13.390;2023-02-23T03:26:49;3.79;85.42
57709;SHT35;42558;52.388;13.390;2023-02-23T03:30:00;3.77;85.51
57709;SHT35;42558;52.388;13.390;2023-02-23T03:33:10;3.72;85.64
57709;SHT35;42558;52.388;13.390;2023-02-23T03:36:10;3.71;85.72
57709;SHT35;42558;52.388;13.390;2023-02-23T03:39:18;3.67;85.71
57709;SHT35;42558;52.388;13.390;2023-02-23T03:42:46;3.63;85.93
57709;SHT35;42558;52.388;13.390;2023-02-23T03:45:40;3.62;85.98
57709;SHT35;42558;52.388;13.390;2023-02-23T03:48:35;3.60;86.04
57709;SHT35;42558;52.388;13.390;2023-02-23T03:51:27;3.58;86.08
57709;SHT35;42558;52.388;13.390;2023-02-23T03:54:32;3.54;86.19
57709;SHT35;42558;52.388;13.390;2023-02-23T03:57:27;3.51;86.30
57709;SHT35;42558;52.388;13.390;2023-02-23T04:00:27;3.48;86.43
57709;SHT35;42558;52.388;13.390;2023-02-23T04:03:21;3.46;86.50
57709;SHT35;42558;52.388;13.390;2023-02-23T04:06:13;3.44;86.50
57709;SHT35;42558;52.388;13.390;2023-02-23T04:09:06;3.42;86.58
57709;SHT35;42558;52.388;13.390;2023-02-23T04:11:57;3.40;86.77
57709;SHT35;42558;52.388;13.390;2023-02-23T04:14:56;3.39;86.73
57709;SHT35;42558;52.388;13.390;2023-02-23T04:17:36;3.37;86.86
57709;SHT35;42558;52.388;13.390;2023-02-23T04:20:07;3.34;86.82
57709;SHT35;42558;52.388;13.390;2023-02-23T04:22:40;3.32;86.90
57709;SHT35;42558;52.388;13.390;2023-02-23T04:25:10;3.31;86.98
57709;SHT35;42558;52.388;13.390;2023-02-23T04:27:45;3.30;87.04
57709;SHT35;42558;52.388;13.390;2023-02-23T04:30:16;3.29;87.04
57709;SHT35;42558;52.388;13.390;2023-02-23T04:32:49;3.23;87.00
57709;SHT35;42558;52.388;13.390;2023-02-23T04:35:19;3.21;87.28
57709;SHT35;42558;52.388;13.390;2023-02-23T04:37:49;3.20;87.30
57709;SHT35;42558;52.388;13.390;2023-02-23T04:40:19;3.18;87.31
57709;SHT35;42558;52.388;13.390;2023-02-23T04:42:52;3.17;87.39
57709;SHT35;42558;52.388;13.390;2023-02-23T04:45:23;3.14;87.29
57709;SHT35;42558;52.388;13.390;2023-02-23T04:47:55;3.10;87.33
57709;SHT35;42558;52.388;13.390;2023-02-23T04:50:25;3.07;87.50
57709;SHT35;42558;52.388;13.390;2023-02-23T04:52:55;3.06;87.49
57709;SHT35;42558;52.388;13.390;2023-02-23T04:55:25;3.03;87.52
57709;SHT35;42558;52.388;13.390;2023-02-23T04:57:58;3.00;87.64
57709;SHT35;42558;52.388;13.390;2023-02-23T05:00:30;2.97;87.69
57709;SHT35;42558;52.388;13.390;2023-02-23T05:03:02;2.94;87.63
57709;SHT35;42558;52.388;13.390;2023-02-23T05:05:32;2.92;87.71
57709;SHT35;42558;52.388;13.390;2023-02-23T05:08:02;2.92;87.87
57709;SHT35;42558;52.388;13.390;2023-02-23T05:10:32;2.89;87.80
57709;SHT35;42558;52.388;13.390;2023-02-23T05:13:02;2.86;87.91
57709;SHT35;42558;52.388;13.390;2023-02-23T05:15:32;2.84;87.92
57709;SHT35;42558;52.388;13.390;2023-02-23T05:18:02;2.80;87.96
57709;SHT35;42558;52.388;13.390;2023-02-23T05:20:32;2.79;88.10
57709;SHT35;42558;52.388;13.390;2023-02-23T05:23:01;2.77;88.08
57709;SHT35;42558;52.388;13.390;2023-02-23T05:25:31;2.72;88.01
57709;SHT35;42558;52.388;13.390;2023-02-23T05:28:02;2.71;88.21
57709;SHT35;42558;52.388;13.390;2023-02-23T05:30:32;2.70;88.29
57709;SHT35;42558;52.388;13.390;2023-02-23T05:33:02;2.68;88.30
57709;SHT35;42558;52.388;13.390;2023-02-23T05:35:32;2.61;88.19
57709;SHT35;42558;52.388;13.390;2023-02-23T05:38:02;2.58;88.36
57709;SHT35;42558;52.388;13.390;2023-02-23T05:40:30;2.58;88.51
57709;SHT35;42558;52.388;13.390;2023-02-23T05:42:58;2.56;88.41
57709;SHT35;42558;52.388;13.390;2023-02-23T05:45:27;2.54;88.44
57709;SHT35;42558;52.388;13.390;2023-02-23T05:47:55;2.53;88.54
57709;SHT35;42558;52.388;13.390;2023-02-23T05:50:24;2.52;88.64
57709;SHT35;42558;52.388;13.390;2023-02-23T05:52:52;2.51;88.72
57709;SHT35;42558;52.388;13.390;2023-02-23T05:55:21;2.46;88.67
57709;SHT35;42558;52.388;13.390;2023-02-23T05:57:49;2.42;88.60
57709;SHT35;42558;52.388;13.390;2023-02-23T06:00:17;2.40;88.61
57709;SHT35;42558;52.388;13.390;2023-02-23T06:02:46;2.39;88.63
57709;SHT35;42558;52.388;13.390;2023-02-23T06:05:14;2.33;88.62
57709;SHT35;42558;52.388;13.390;2023-02-23T06:07:43;2.29;88.60
57709;SHT35;42558;52.388;13.390;2023-02-23T06:10:11;2.29;88.74
57709;SHT35;42558;52.388;13.390;2023-02-23T06:12:39;2.33;89.10
57709;SHT35;42558;52.388;13.390;2023-02-23T06:15:08;2.36;89.20
57709;SHT35;42558;52.388;13.390;2023-02-23T06:17:36;2.38;89.22
57709;SHT35;42558;52.388;13.390;2023-02-23T06:20:05;2.40;89.28
57709;SHT35;42558;52.388;13.390;2023-02-23T06:22:33;2.38;89.17
57709;SHT35;42558;52.388;13.390;2023-02-23T06:25:02;2.38;89.24
57709;SHT35;42558;52.388;13.390;2023-02-23T06:27:33;2.40;89.24
57709;SHT35;42558;52.388;13.390;2023-02-23T06:30:02;2.43;89.22
57709;SHT35;42558;52.388;13.390;2023-02-23T06:32:30;2.46;89.22
57709;SHT35;42558;52.388;13.390;2023-02-23T06:34:58;2.48;89.20
57709;SHT35;42558;52.388;13.390;2023-02-23T06:37:27;2.52;89.20
57709;SHT35;42558;52.388;13.390;2023-02-23T06:39:55;2.56;89.19
57709;SHT35;42558;52.388;13.390;2023-02-23T06:42:23;2.60;89.11
57709;SHT35;42558;52.388;13.390;2023-02-23T06:44:52;2.65;89.10
57709;SHT35;42558;52.388;13.390;2023-02-23T06:47:20;2.70;88.99
57709;SHT35;42558;52.388;13.390;2023-02-23T06:49:49;2.73;88.79
57709;SHT35;42558;52.388;13.390;2023-02-23T06:52:17;2.76;88.68
57709;SHT35;42558;52.388;13.390;2023-02-23T06:54:45;2.80;88.61
57709;SHT35;42558;52.388;13.390;2023-02-23T06:57:14;2.81;88.42
57709;SHT35;42558;52.388;13.390;2023-02-23T06:59:42;2.84;88.30
57709;SHT35;42558;52.388;13.390;2023-02-23T07:02:11;2.90;88.24
57709;SHT35;42558;52.388;13.390;2023-02-23T07:04:39;2.94;88.13
57709;SHT35;42558;52.388;13.390;2023-02-23T07:07:08;2.94;87.88
57709;SHT35;42558;52.388;13.390;2023-02-23T07:09:38;2.95;87.83
57709;SHT35;42558;52.388;13.390;2023-02-23T07:12:09;3.02;87.82
57709;SHT35;42558;52.388;13.390;2023-02-23T07:14:42;3.03;87.56
57709;SHT35;42558;52.388;13.390;2023-02-23T07:17:12;3.08;87.56
57709;SHT35;42558;52.388;13.390;2023-02-23T07:19:42;3.16;87.50
57709;SHT35;42558;52.388;13.390;2023-02-23T07:22:12;3.20;87.29
57709;SHT35;42558;52.388;13.390;2023-02-23T07:24:42;3.24;87.24
57709;SHT35;42558;52.388;13.390;2023-02-23T07:27:12;3.27;87.15
57709;SHT35;42558;52.388;13.390;2023-02-23T07:29:42;3.29;86.93
57709;SHT35;42558;52.388;13.390;2023-02-23T07:32:12;3.30;86.78
57709;SHT35;42558;52.388;13.390;2023-02-23T07:34:42;3.31;86.68
57709;SHT35;42558;52.388;13.390;2023-02-23T07:37:12;3.38;86.75
57709;SHT35;42558;52.388;13.390;2023-02-23T07:39:42;3.40;86.55
57709;SHT35;42558;52.388;13.390;2023-02-23T07:42:13;3.43;86.36
57709;SHT35;42558;52.388;13.390;2023-02-23T07:44:43;3.47;86.39
57709;SHT35;42558;52.388;13.390;2023-02-23T07:47:13;3.52;86.26
57709;SHT35;42558;52.388;13.390;2023-02-23T07:49:43;3.52;86.11
57709;SHT35;42558;52.388;13.390;2023-02-23T07:52:16;3.58;86.00
57709;SHT35;42558;52.388;13.390;2023-02-23T07:54:47;3.71;85.93
57709;SHT35;42558;52.388;13.390;2023-02-23T07:57:17;3.78;85.59
57709;SHT35;42558;52.388;13.390;2023-02-23T07:59:49;3.78;85.33
57709;SHT35;42558;52.388;13.390;2023-02-23T08:02:19;3.82;85.23
57709;SHT35;42558;52.388;13.390;2023-02-23T08:04:49;3.85;85.20
57709;SHT35;42558;52.388;13.390;2023-02-23T08:07:22;3.98;84.97
57709;SHT35;42558;52.388;13.390;2023-02-23T08:09:54;4.23;84.91
57709;SHT35;42558;52.388;13.390;2023-02-23T08:12:24;4.46;84.39
57709;SHT35;42558;52.388;13.390;2023-02-23T08:14:54;4.38;83.25
57709;SHT35;42558;52.388;13.390;2023-02-23T08:17:24;4.43;83.33
57709;SHT35;42558;52.388;13.390;2023-02-23T08:19:54;4.53;83.00
57709;SHT35;42558;52.388;13.390;2023-02-23T08:22:24;4.52;83.01
57709;SHT35;42558;52.388;13.390;2023-02-23T08:24:54;4.54;82.95
57709;SHT35;42558;52.388;13.390;2023-02-23T08:27:24;4.52;83.05
57709;SHT35;42558;52.388;13.390;2023-02-23T08:29:56;4.59;83.07
57709;SHT35;42558;52.388;13.390;2023-02-23T08:32:24;4.68;83.11
57709;SHT35;42558;52.388;13.390;2023-02-23T08:34:52;4.67;83.08
57709;SHT35;42558;52.388;13.390;2023-02-23T08:37:21;4.76;82.89
57709;SHT35;42558;52.388;13.390;2023-02-23T08:39:49;4.71;82.75
57709;SHT35;42558;52.388;13.390;2023-02-23T08:42:18;4.64;83.23
57709;SHT35;42558;52.388;13.390;2023-02-23T08:44:46;4.77;83.35
57709;SHT35;42558;52.388;13.390;2023-02-23T08:47:19;4.78;83.23
57709;SHT35;42558;52.388;13.390;2023-02-23T08:49:52;4.79;83.32
57709;SHT35;42558;52.388;13.390;2023-02-23T08:52:22;4.70;83.48
57709;SHT35;42558;52.388;13.390;2023-02-23T08:54:53;4.76;83.63
57709;SHT35;42558;52.388;13.390;2023-02-23T08:57:24;4.72;83.54
57709;SHT35;42558;52.388;13.390;2023-02-23T08:59:55;4.83;83.62
57709;SHT35;42558;52.388;13.390;2023-02-23T09:02:25;5.01;83.57
57709;SHT35;42558;52.388;13.390;2023-02-23T09:04:55;5.13;83.06
57709;SHT35;42558;52.388;13.390;2023-02-23T09:07:26;5.11;82.87
57709;SHT35;42558;52.388;13.390;2023-02-23T09:09:56;5.25;83.14
57709;SHT35;42558;52.388;13.390;2023-02-23T09:12:27;5.41;82.62
57709;SHT35;42558;52.388;13.390;2023-02-23T09:14:57;5.53;82.44
57709;SHT35;42558;52.388;13.390;2023-02-23T09:17:26;5.54;82.02
57709;SHT35;42558;52.388;13.390;2023-02-23T09:19:56;5.63;81.78
57709;SHT35;42558;52.388;13.390;2023-02-23T09:22:26;5.70;81.86
57709;SHT35;42558;52.388;13.390;2023-02-23T09:24:56;5.89;81.88
57709;SHT35;42558;52.388;13.390;2023-02-23T09:27:26;5.87;81.15
57709;SHT35;42558;52.388;13.390;2023-02-23T09:29:56;5.76;81.25
57709;SHT35;42558;52.388;13.390;2023-02-23T09:32:26;5.92;81.51
57709;SHT35;42558;52.388;13.390;2023-02-23T09:34:56;6.16;81.03
57709;SHT35;42558;52.388;13.390;2023-02-23T09:37:26;6.36;80.47
57709;SHT35;42558;52.388;13.390;2023-02-23T09:39:55;6.52;79.68
57709;SHT35;42558;52.388;13.390;2023-02-23T09:42:32;6.65;79.10
57709;SHT35;42558;52.388;13.390;2023-02-23T09:45:23;6.93;79.37
57709;SHT35;42558;52.388;13.390;2023-02-23T09:50:38;7.51;77.68
57709;SHT35;42558;52.388;13.390;2023-02-23T09:59:09;8.03;76.80
57709;SHT35;42558;52.388;13.390;2023-02-23T10:16:17;8.38;75.68
57709;SHT35;42558;52.388;13.390;2023-02-23T10:19:21;8.52;76.55
57709;SHT35;42558;52.388;13.390;2023-02-23T10:22:01;8.90;74.38
57709;SHT35;42558;52.388;13.390;2023-02-23T10:24:36;8.87;75.37
57709;SHT35;42558;52.388;13.390;2023-02-23T10:27:18;9.36;74.14
57709;SHT35;42558;52.388;13.390;2023-02-23T10:29:55;9.75;72.31
57709;SHT35;42558;52.388;13.390;2023-02-23T10:35:36;10.56;70.00
57709;SHT35;42558;52.388;13.390;2023-02-23T10:38:09;10.31;70.98
57709;SHT35;42558;52.388;13.390;2023-02-23T10:40:49;10.36;70.99
57709;SHT35;42558;52.388;13.390;2023-02-23T10:43:23;10.20;71.10
57709;SHT35;42558;52.388;13.390;2023-02-23T10:45:54;10.37;71.56
57709;SHT35;42558;52.388;13.390;2023-02-23T10:48:23;10.48;71.97
57709;SHT35;42558;52.388;13.390;2023-02-23T10:51:00;10.40;71.40
57709;SHT35;42558;52.388;13.390;2023-02-23T10:53:34;10.26;71.98
57709;SHT35;42558;52.388;13.390;2023-02-23T10:56:06;10.55;72.31
57709;SHT35;42558;52.388;13.390;2023-02-23T10:58:48;11.03;70.10
57709;SHT35;42558;52.388;13.390;2023-02-23T11:01:34;11.05;69.90
57709;SHT35;42558;52.388;13.390;2023-02-23T11:04:30;11.06;70.35
57709;SHT35;42558;52.388;13.390;2023-02-23T11:07:14;10.60;71.33
57709;SHT35;42558;52.388;13.390;2023-02-23T11:09:49;10.33;72.24
57709;SHT35;42558;52.388;13.390;2023-02-23T11:12:22;10.44;73.35
57709;SHT35;42558;52.388;13.390;2023-02-23T11:14:56;10.89;71.61
57709;SHT35;42558;52.388;13.390;2023-02-23T11:17:28;10.90;72.06
57709;SHT35;42558;52.388;13.390;2023-02-23T11:22:59;10.64;72.77
57709;SHT35;42558;52.388;13.390;2023-02-23T11:25:53;10.83;73.23
57709;SHT35;42558;52.388;13.390;2023-02-23T11:28:35;10.63;72.68
57709;SHT35;42558;52.388;13.390;2023-02-23T11:31:20;10.66;73.85
57709;SHT35;42558;52.388;13.390;2023-02-23T11:34:00;10.81;73.41
57709;SHT35;42558;52.388;13.390;2023-02-23T11:36:35;10.82;73.55
57709;SHT35;42558;52.388;13.390;2023-02-23T11:39:14;10.91;73.19
57709;SHT35;42558;52.388;13.390;2023-02-23T11:44:51;10.40;74.18
57709;SHT35;42558;52.388;13.390;2023-02-23T11:47:37;10.18;74.83
57709;SHT35;42558;52.388;13.390;2023-02-23T11:52:54;10.37;75.00
57709;SHT35;42558;52.388;13.390;2023-02-23T11:55:48;10.35;74.61
57709;SHT35;42558;52.388;13.390;2023-02-23T11:58:35;10.24;74.95
57709;SHT35;42558;52.388;13.390;2023-02-23T12:01:16;10.30;74.88
57709;SHT35;42558;52.388;13.390;2023-02-23T12:04:03;10.39;75.73
57709;SHT35;42558;52.388;13.390;2023-02-23T12:06:37;10.62;75.19
57709;SHT35;42558;52.388;13.390;2023-02-23T12:09:21;10.57;74.59
57709;SHT35;42558;52.388;13.390;2023-02-23T12:12:03;10.37;75.08
57709;SHT35;42558;52.388;13.390;2023-02-23T12:14:47;10.39;75.20
57709;SHT35;42558;52.388;13.390;2023-02-23T12:17:30;10.51;75.56
57709;SHT35;42558;52.388;13.390;2023-02-23T12:20:26;10.57;74.60
57709;SHT35;42558;52.388;13.390;2023-02-23T12:23:05;10.54;75.25
57709;SHT35;42558;52.388;13.390;2023-02-23T12:25:46;10.82;75.00
57709;SHT35;42558;52.388;13.390;2023-02-23T12:32:24;10.97;73.63
57709;SHT35;42558;52.388;13.390;2023-02-23T12:35:00;10.97;74.06
57709;SHT35;42558;52.388;13.390;2023-02-23T12:37:37;10.83;74.47
57709;SHT35;42558;52.388;13.390;2023-02-23T12:40:25;10.82;74.25
57709;SHT35;42558;52.388;13.390;2023-02-23T12:45:53;10.74;74.64
57709;SHT35;42558;52.388;13.390;2023-02-23T12:51:34;10.91;74.97
57709;SHT35;42558;52.388;13.390;2023-02-23T12:54:11;10.93;75.23
57709;SHT35;42558;52.388;13.390;2023-02-23T13:03:06;10.84;74.91
57709;SHT35;42558;52.388;13.390;2023-02-23T13:06:15;10.94;74.48
57709;SHT35;42558;52.388;13.390;2023-02-23T13:17:55;10.84;74.63
57709;SHT35;42558;52.388;13.390;2023-02-23T13:23:21;11.03;74.55
57709;SHT35;42558;52.388;13.390;2023-02-23T13:29:04;11.16;74.43
57709;SHT35;42558;52.388;13.390;2023-02-23T13:31:42;11.23;74.31
57709;SHT35;42558;52.388;13.390;2023-02-23T13:34:11;11.13;74.46
57709;SHT35;42558;52.388;13.390;2023-02-23T13:37:10;11.02;75.11
57709;SHT35;42558;52.388;13.390;2023-02-23T13:45:48;11.14;75.12
57709;SHT35;42558;52.388;13.390;2023-02-23T13:51:37;11.03;75.63
57709;SHT35;42558;52.388;13.390;2023-02-23T13:56:48;11.13;75.46
57709;SHT35;42558;52.388;13.390;2023-02-23T13:59:44;11.09;75.38
57709;SHT35;42558;52.388;13.390;2023-02-23T14:02:32;10.93;76.16
57709;SHT35;42558;52.388;13.390;2023-02-23T14:07:42;10.74;76.71
57709;SHT35;42558;52.388;13.390;2023-02-23T14:10:19;10.66;77.22
57709;SHT35;42558;52.388;13.390;2023-02-23T14:13:05;10.66;77.49
57709;SHT35;42558;52.388;13.390;2023-02-23T14:16:17;10.59;78.05
57709;SHT35;42558;52.388;13.390;2023-02-23T14:19:10;10.58;77.95
57709;SHT35;42558;52.388;13.390;2023-02-23T14:22:11;10.56;78.21
57709;SHT35;42558;52.388;13.390;2023-02-23T14:28:13;10.48;78.58
57709;SHT35;42558;52.388;13.390;2023-02-23T14:38:50;10.37;79.44
57709;SHT35;42558;52.388;13.390;2023-02-23T14:44:20;10.24;80.62
57709;SHT35;42558;52.388;13.390;2023-02-23T14:47:06;10.20;80.96
57709;SHT35;42558;52.388;13.390;2023-02-23T14:49:43;10.13;81.23
57709;SHT35;42558;52.388;13.390;2023-02-23T14:52:21;10.08;81.33
57709;SHT35;42558;52.388;13.390;2023-02-23T14:57:40;9.91;82.15
57709;SHT35;42558;52.388;13.390;2023-02-23T15:03:00;9.79;82.41
57709;SHT35;42558;52.388;13.390;2023-02-23T15:05:41;9.72;82.12
57709;SHT35;42558;52.388;13.390;2023-02-23T15:08:16;9.60;82.12
57709;SHT35;42558;52.388;13.390;2023-02-23T15:11:02;9.45;82.75
57709;SHT35;42558;52.388;13.390;2023-02-23T15:13:39;9.30;83.47
57709;SHT35;42558;52.388;13.390;2023-02-23T15:16:34;9.14;84.38
57709;SHT35;42558;52.388;13.390;2023-02-23T15:19:05;9.07;84.96
57709;SHT35;42558;52.388;13.390;2023-02-23T15:21:35;8.98;85.57
57709;SHT35;42558;52.388;13.390;2023-02-23T15:24:11;9.00;85.69
57709;SHT35;42558;52.388;13.390;2023-02-23T15:26:50;8.93;86.23
57709;SHT35;42558;52.388;13.390;2023-02-23T15:29:21;8.86;86.56
57709;SHT35;42558;52.388;13.390;2023-02-23T15:32:21;8.76;87.15
57709;SHT35;42558;52.388;13.390;2023-02-23T15:34:54;8.74;87.28
57709;SHT35;42558;52.388;13.390;2023-02-23T15:40:06;8.70;87.60
57709;SHT35;42558;52.388;13.390;2023-02-23T15:42:50;8.66;87.74
57709;SHT35;42558;52.388;13.390;2023-02-23T15:45:37;8.65;87.88
57709;SHT35;42558;52.388;13.390;2023-02-23T15:48:15;8.61;88.04
57709;SHT35;42558;52.388;13.390;2023-02-23T15:50:52;8.62;88.27
57709;SHT35;42558;52.388;13.390;2023-02-23T15:53:29;8.60;88.41
57709;SHT35;42558;52.388;13.390;2023-02-23T15:56:12;8.55;88.60
57709;SHT35;42558;52.388;13.390;2023-02-23T15:58:50;8.54;88.74
57709;SHT35;42558;52.388;13.390;2023-02-23T16:01:29;8.52;88.89
57709;SHT35;42558;52.388;13.390;2023-02-23T16:04:08;8.45;89.08
57709;SHT35;42558;52.388;13.390;2023-02-23T16:06:52;8.43;89.25
57709;SHT35;42558;52.388;13.390;2023-02-23T16:09:38;8.40;89.42
57709;SHT35;42558;52.388;13.390;2023-02-23T16:12:19;8.38;89.50
57709;SHT35;42558;52.388;13.390;2023-02-23T16:17:51;8.37;89.62
57709;SHT35;42558;52.388;13.390;2023-02-23T16:23:17;8.39;89.72
57709;SHT35;42558;52.388;13.390;2023-02-23T16:28:41;8.40;89.61
57709;SHT35;42558;52.388;13.390;2023-02-23T16:31:20;8.42;89.62
57709;SHT35;42558;52.388;13.390;2023-02-23T16:33:56;8.43;89.64
57709;SHT35;42558;52.388;13.390;2023-02-23T16:36:35;8.42;89.58
57709;SHT35;42558;52.388;13.390;2023-02-23T16:39:11;8.41;89.57
57709;SHT35;42558;52.388;13.390;2023-02-23T16:41:41;8.41;89.61
57709;SHT35;42558;52.388;13.390;2023-02-23T16:44:16;8.40;89.59
57709;SHT35;42558;52.388;13.390;2023-02-23T16:49:30;8.36;89.53
57709;SHT35;42558;52.388;13.390;2023-02-23T16:52:00;8.35;89.58
57709;SHT35;42558;52.388;13.390;2023-02-23T16:54:41;8.33;89.71
57709;SHT35;42558;52.388;13.390;2023-02-23T16:57:17;8.32;89.79
57709;SHT35;42558;52.388;13.390;2023-02-23T16:59:57;8.32;89.80
57709;SHT35;42558;52.388;13.390;2023-02-23T17:02:28;8.33;89.90
57709;SHT35;42558;52.388;13.390;2023-02-23T17:04:58;8.33;89.91
57709;SHT35;42558;52.388;13.390;2023-02-23T17:07:28;8.33;89.93
57709;SHT35;42558;52.388;13.390;2023-02-23T17:09:58;8.30;89.91
57709;SHT35;42558;52.388;13.390;2023-02-23T17:12:28;8.31;90.01
57709;SHT35;42558;52.388;13.390;2023-02-23T17:14:58;8.31;90.01
57709;SHT35;42558;52.388;13.390;2023-02-23T17:17:28;8.31;90.06
57709;SHT35;42558;52.388;13.390;2023-02-23T17:19:59;8.30;90.04
57709;SHT35;42558;52.388;13.390;2023-02-23T17:22:29;8.27;90.06
57709;SHT35;42558;52.388;13.390;2023-02-23T17:25:00;8.27;90.10
57709;SHT35;42558;52.388;13.390;2023-02-23T17:27:29;8.27;90.16
57709;SHT35;42558;52.388;13.390;2023-02-23T17:29:57;8.26;90.14
57709;SHT35;42558;52.388;13.390;2023-02-23T17:32:26;8.27;90.20
57709;SHT35;42558;52.388;13.390;2023-02-23T17:34:57;8.26;90.20
57709;SHT35;42558;52.388;13.390;2023-02-23T17:37:26;8.26;90.22
57709;SHT35;42558;52.388;13.390;2023-02-23T17:39:54;8.26;90.21
57709;SHT35;42558;52.388;13.390;2023-02-23T17:42:22;8.25;90.30
57709;SHT35;42558;52.388;13.390;2023-02-23T17:45:04;8.27;90.37
57709;SHT35;42558;52.388;13.390;2023-02-23T17:47:36;8.35;90.55
57709;SHT35;42558;52.388;13.390;2023-02-23T17:50:11;8.31;90.40
57709;SHT35;42558;52.388;13.390;2023-02-23T17:52:40;8.29;90.38
57709;SHT35;42558;52.388;13.390;2023-02-23T17:55:10;8.28;90.40
57709;SHT35;42558;52.388;13.390;2023-02-23T17:57:41;8.27;90.40
57709;SHT35;42558;52.388;13.390;2023-02-23T18:00:13;8.25;90.38
57709;SHT35;42558;52.388;13.390;2023-02-23T18:02:45;8.25;90.40
57709;SHT35;42558;52.388;13.390;2023-02-23T18:05:15;8.24;90.45
57709;SHT35;42558;52.388;13.390;2023-02-23T18:07:45;8.24;90.51
57709;SHT35;42558;52.388;13.390;2023-02-23T18:10:17;8.23;90.59
57709;SHT35;42558;52.388;13.390;2023-02-23T18:12:47;8.21;90.60
57709;SHT35;42558;52.388;13.390;2023-02-23T18:15:17;8.21;90.69
57709;SHT35;42558;52.388;13.390;2023-02-23T18:17:49;8.22;90.81
57709;SHT35;42558;52.388;13.390;2023-02-23T18:20:22;8.21;90.87
57709;SHT35;42558;52.388;13.390;2023-02-23T18:22:52;8.20;90.98
57709;SHT35;42558;52.388;13.390;2023-02-23T18:25:25;8.20;91.15
57709;SHT35;42558;52.388;13.390;2023-02-23T18:27:57;8.21;91.18
57709;SHT35;42558;52.388;13.390;2023-02-23T18:30:28;8.20;91.20
57709;SHT35;42558;52.388;13.390;2023-02-23T18:32:58;8.20;91.39
57709;SHT35;42558;52.388;13.390;2023-02-23T18:35:33;8.20;91.50
57709;SHT35;42558;52.388;13.390;2023-02-23T18:38:06;8.19;91.41
57709;SHT35;42558;52.388;13.390;2023-02-23T18:40:43;8.18;91.51
57709;SHT35;42558;52.388;13.390;2023-02-23T18:43:13;8.18;91.55
57709;SHT35;42558;52.388;13.390;2023-02-23T18:45:43;8.18;91.59
57709;SHT35;42558;52.388;13.390;2023-02-23T18:48:12;8.18;91.62
57709;SHT35;42558;52.388;13.390;2023-02-23T18:50:40;8.17;91.62
57709;SHT35;42558;52.388;13.390;2023-02-23T18:53:09;8.15;91.71